sensor_id;sensor_type;location;lat;lon;timestamp;temperature;humidity
65854;DHT22;52627;48.838;2.402;2024-02-21T00:00:15;8.92;77.20
65854;DHT22;52627;48.838;2.402;2024-02-21T00:02:44;8.90;77.28
65854;DHT22;52627;48.838;2.402;2024-02-21T00:05:11;8.88;77.30
65854;DHT22;52627;48.838;2.402;2024-02-21T00:07:39;8.86;77.30
65854;DHT22;52627;48.838;2.402;2024-02-21T00:10:07;8.85;77.34
65854;DHT22;52627;48.838;2.402;2024-02-21T00:12:36;8.84;77.40
65854;DHT22;52627;48.838;2.402;2024-02-21T00:15:03;8.84;77.40
65854;DHT22;52627;48.838;2.402;2024-02-21T00:17:32;8.82;77.43
65854;DHT22;52627;48.838;2.402;2024-02-21T00:19:59;8.81;77.50
65854;DHT22;52627;48.838;2.402;2024-02-21T00:22:27;8.80;77.55
65854;DHT22;52627;48.838;2.402;2024-02-21T00:24:58;8.80;77.60
65854;DHT22;52627;48.838;2.402;2024-02-21T00:27:26;8.80;77.60
65854;DHT22;52627;48.838;2.402;2024-02-21T00:29:54;8.78;77.68
65854;DHT22;52627;48.838;2.402;2024-02-21T00:32:21;8.78;77.69
65854;DHT22;52627;48.838;2.402;2024-02-21T00:34:49;8.79;77.69
65854;DHT22;52627;48.838;2.402;2024-02-21T00:37:16;8.79;77.70
65854;DHT22;52627;48.838;2.402;2024-02-21T00:39:44;8.79;77.70
65854;DHT22;52627;48.838;2.402;2024-02-21T00:42:11;8.78;77.74
65854;DHT22;52627;48.838;2.402;2024-02-21T00:44:39;8.77;77.79
65854;DHT22;52627;48.838;2.402;2024-02-21T00:47:06;8.76;77.80
65854;DHT22;52627;48.838;2.402;2024-02-21T00:49:34;8.75;77.84
65854;DHT22;52627;48.838;2.402;2024-02-21T00:52:01;8.74;77.87
65854;DHT22;52627;48.838;2.402;2024-02-21T00:54:29;8.73;77.90
65854;DHT22;52627;48.838;2.402;2024-02-21T00:57:13;8.73;77.90
65854;DHT22;52627;48.838;2.402;2024-02-21T00:59:41;8.73;77.91
65854;DHT22;52627;48.838;2.402;2024-02-21T01:02:08;8.72;77.96
65854;DHT22;52627;48.838;2.402;2024-02-21T01:04:36;8.71;77.99
65854;DHT22;52627;48.838;2.402;2024-02-21T01:07:04;8.71;78.00
65854;DHT22;52627;48.838;2.402;2024-02-21T01:09:31;8.71;78.01
65854;DHT22;52627;48.838;2.402;2024-02-21T01:11:59;8.71;78.05
65854;DHT22;52627;48.838;2.402;2024-02-21T01:14:26;8.70;78.10
65854;DHT22;52627;48.838;2.402;2024-02-21T01:16:55;8.68;78.10
65854;DHT22;52627;48.838;2.402;2024-02-21T01:19:22;8.67;78.10
65854;DHT22;52627;48.838;2.402;2024-02-21T01:21:50;8.66;78.12
65854;DHT22;52627;48.838;2.402;2024-02-21T01:24:18;8.64;78.14
65854;DHT22;52627;48.838;2.402;2024-02-21T01:26:45;8.64;78.20
65854;DHT22;52627;48.838;2.402;2024-02-21T01:29:13;8.63;78.20
65854;DHT22;52627;48.838;2.402;2024-02-21T01:31:41;8.62;78.21
65854;DHT22;52627;48.838;2.402;2024-02-21T01:34:08;8.61;78.23
65854;DHT22;52627;48.838;2.402;2024-02-21T01:36:36;8.60;78.23
65854;DHT22;52627;48.838;2.402;2024-02-21T01:39:04;8.57;78.28
65854;DHT22;52627;48.838;2.402;2024-02-21T01:41:32;8.57;78.35
65854;DHT22;52627;48.838;2.402;2024-02-21T01:43:59;8.57;78.36
65854;DHT22;52627;48.838;2.402;2024-02-21T01:46:27;8.58;78.39
65854;DHT22;52627;48.838;2.402;2024-02-21T01:48:58;8.59;78.40
65854;DHT22;52627;48.838;2.402;2024-02-21T01:51:27;8.60;78.42
65854;DHT22;52627;48.838;2.402;2024-02-21T01:53:55;8.62;78.49
65854;DHT22;52627;48.838;2.402;2024-02-21T01:56:24;8.63;78.50
65854;DHT22;52627;48.838;2.402;2024-02-21T01:58:52;8.64;78.50
65854;DHT22;52627;48.838;2.402;2024-02-21T02:01:20;8.65;78.50
65854;DHT22;52627;48.838;2.402;2024-02-21T02:03:49;8.64;78.50
65854;DHT22;52627;48.838;2.402;2024-02-21T02:06:17;8.64;78.51
65854;DHT22;52627;48.838;2.402;2024-02-21T02:08:44;8.65;78.57
65854;DHT22;52627;48.838;2.402;2024-02-21T02:11:13;8.64;78.57
65854;DHT22;52627;48.838;2.402;2024-02-21T02:13:42;8.64;78.60
65854;DHT22;52627;48.838;2.402;2024-02-21T02:16:09;8.63;78.60
65854;DHT22;52627;48.838;2.402;2024-02-21T02:18:37;8.63;78.60
65854;DHT22;52627;48.838;2.402;2024-02-21T02:21:05;8.63;78.61
65854;DHT22;52627;48.838;2.402;2024-02-21T02:24:07;8.61;78.61
65854;DHT22;52627;48.838;2.402;2024-02-21T02:26:35;8.62;78.69
65854;DHT22;52627;48.838;2.402;2024-02-21T02:29:02;8.62;78.70
65854;DHT22;52627;48.838;2.402;2024-02-21T02:31:30;8.61;78.70
65854;DHT22;52627;48.838;2.402;2024-02-21T02:33:57;8.61;78.70
65854;DHT22;52627;48.838;2.402;2024-02-21T02:36:25;8.61;78.70
65854;DHT22;52627;48.838;2.402;2024-02-21T02:38:52;8.61;78.70
65854;DHT22;52627;48.838;2.402;2024-02-21T02:41:20;8.60;78.70
65854;DHT22;52627;48.838;2.402;2024-02-21T02:43:47;8.60;78.70
65854;DHT22;52627;48.838;2.402;2024-02-21T02:46:15;8.60;78.70
65854;DHT22;52627;48.838;2.402;2024-02-21T02:48:42;8.60;78.70
65854;DHT22;52627;48.838;2.402;2024-02-21T02:51:10;8.60;78.70
65854;DHT22;52627;48.838;2.402;2024-02-21T02:53:38;8.58;78.74
65854;DHT22;52627;48.838;2.402;2024-02-21T02:56:05;8.57;78.71
65854;DHT22;52627;48.838;2.402;2024-02-21T02:58:33;8.57;78.74
65854;DHT22;52627;48.838;2.402;2024-02-21T03:01:02;8.56;78.74
65854;DHT22;52627;48.838;2.402;2024-02-21T03:03:31;8.54;78.76
65854;DHT22;52627;48.838;2.402;2024-02-21T03:05:59;8.53;78.78
65854;DHT22;52627;48.838;2.402;2024-02-21T03:08:26;8.52;78.80
65854;DHT22;52627;48.838;2.402;2024-02-21T03:10:54;8.51;78.81
65854;DHT22;52627;48.838;2.402;2024-02-21T03:13:21;8.51;78.83
65854;DHT22;52627;48.838;2.402;2024-02-21T03:15:49;8.51;78.83
65854;DHT22;52627;48.838;2.402;2024-02-21T03:18:16;8.52;78.86
65854;DHT22;52627;48.838;2.402;2024-02-21T03:20:44;8.52;78.88
65854;DHT22;52627;48.838;2.402;2024-02-21T03:23:11;8.49;78.89
65854;DHT22;52627;48.838;2.402;2024-02-21T03:25:39;8.46;78.90
65854;DHT22;52627;48.838;2.402;2024-02-21T03:28:06;8.46;78.92
65854;DHT22;52627;48.838;2.402;2024-02-21T03:30:34;8.45;78.91
65854;DHT22;52627;48.838;2.402;2024-02-21T03:33:02;8.45;78.96
65854;DHT22;52627;48.838;2.402;2024-02-21T03:35:30;8.45;78.99
65854;DHT22;52627;48.838;2.402;2024-02-21T03:37:57;8.43;79.00
65854;DHT22;52627;48.838;2.402;2024-02-21T03:40:25;8.43;79.00
65854;DHT22;52627;48.838;2.402;2024-02-21T03:42:53;8.41;79.04
65854;DHT22;52627;48.838;2.402;2024-02-21T03:45:20;8.39;79.10
65854;DHT22;52627;48.838;2.402;2024-02-21T03:47:47;8.38;79.10
65854;DHT22;52627;48.838;2.402;2024-02-21T03:50:15;8.38;79.10
65854;DHT22;52627;48.838;2.402;2024-02-21T03:52:43;8.37;79.11
65854;DHT22;52627;48.838;2.402;2024-02-21T03:55:10;8.38;79.11
65854;DHT22;52627;48.838;2.402;2024-02-21T03:57:38;8.39;79.14
65854;DHT22;52627;48.838;2.402;2024-02-21T04:00:05;8.40;79.16
65854;DHT22;52627;48.838;2.402;2024-02-21T04:02:38;8.41;79.19
65854;DHT22;52627;48.838;2.402;2024-02-21T04:05:06;8.41;79.17
65854;DHT22;52627;48.838;2.402;2024-02-21T04:07:38;8.43;79.18
65854;DHT22;52627;48.838;2.402;2024-02-21T04:10:06;8.43;79.19
65854;DHT22;52627;48.838;2.402;2024-02-21T04:12:34;8.43;79.19
65854;DHT22;52627;48.838;2.402;2024-02-21T04:15:02;8.42;79.18
65854;DHT22;52627;48.838;2.402;2024-02-21T04:17:30;8.38;79.19
65854;DHT22;52627;48.838;2.402;2024-02-21T04:20:02;8.37;79.20
65854;DHT22;52627;48.838;2.402;2024-02-21T04:22:33;8.36;79.22
65854;DHT22;52627;48.838;2.402;2024-02-21T04:25:01;8.36;79.23
65854;DHT22;52627;48.838;2.402;2024-02-21T04:27:29;8.35;79.26
65854;DHT22;52627;48.838;2.402;2024-02-21T04:29:56;8.33;79.30
65854;DHT22;52627;48.838;2.402;2024-02-21T04:32:24;8.33;79.30
65854;DHT22;52627;48.838;2.402;2024-02-21T04:34:51;8.32;79.30
65854;DHT22;52627;48.838;2.402;2024-02-21T04:37:19;8.31;79.30
65854;DHT22;52627;48.838;2.402;2024-02-21T04:39:48;8.31;79.31
65854;DHT22;52627;48.838;2.402;2024-02-21T04:42:16;8.29;79.35
65854;DHT22;52627;48.838;2.402;2024-02-21T04:44:44;8.28;79.40
65854;DHT22;52627;48.838;2.402;2024-02-21T04:47:11;8.30;79.40
65854;DHT22;52627;48.838;2.402;2024-02-21T04:49:39;8.30;79.40
65854;DHT22;52627;48.838;2.402;2024-02-21T04:52:07;8.30;79.41
65854;DHT22;52627;48.838;2.402;2024-02-21T04:54:34;8.30;79.41
65854;DHT22;52627;48.838;2.402;2024-02-21T04:57:02;8.29;79.44
65854;DHT22;52627;48.838;2.402;2024-02-21T04:59:31;8.28;79.46
65854;DHT22;52627;48.838;2.402;2024-02-21T05:01:59;8.28;79.50
65854;DHT22;52627;48.838;2.402;2024-02-21T05:04:26;8.26;79.50
65854;DHT22;52627;48.838;2.402;2024-02-21T05:06:54;8.27;79.50
65854;DHT22;52627;48.838;2.402;2024-02-21T05:09:22;8.27;79.53
65854;DHT22;52627;48.838;2.402;2024-02-21T05:11:49;8.26;79.55
65854;DHT22;52627;48.838;2.402;2024-02-21T05:14:17;8.23;79.54
65854;DHT22;52627;48.838;2.402;2024-02-21T05:16:44;8.20;79.60
65854;DHT22;52627;48.838;2.402;2024-02-21T05:19:12;8.18;79.60
65854;DHT22;52627;48.838;2.402;2024-02-21T05:21:40;8.16;79.62
65854;DHT22;52627;48.838;2.402;2024-02-21T05:24:08;8.15;79.64
65854;DHT22;52627;48.838;2.402;2024-02-21T05:26:35;8.14;79.70
65854;DHT22;52627;48.838;2.402;2024-02-21T05:29:02;8.12;79.70
65854;DHT22;52627;48.838;2.402;2024-02-21T05:31:42;8.11;79.70
65854;DHT22;52627;48.838;2.402;2024-02-21T05:34:20;8.11;79.75
65854;DHT22;52627;48.838;2.402;2024-02-21T05:36:48;8.11;79.73
65854;DHT22;52627;48.838;2.402;2024-02-21T05:39:17;8.10;79.74
65854;DHT22;52627;48.838;2.402;2024-02-21T05:41:45;8.10;79.80
65854;DHT22;52627;48.838;2.402;2024-02-21T05:44:12;8.09;79.82
65854;DHT22;52627;48.838;2.402;2024-02-21T05:46:40;8.08;79.87
65854;DHT22;52627;48.838;2.402;2024-02-21T05:49:07;8.09;79.89
65854;DHT22;52627;48.838;2.402;2024-02-21T05:51:35;8.08;79.90
65854;DHT22;52627;48.838;2.402;2024-02-21T05:54:03;8.07;79.90
65854;DHT22;52627;48.838;2.402;2024-02-21T05:56:30;8.06;79.92
65854;DHT22;52627;48.838;2.402;2024-02-21T05:58:58;8.06;79.99
65854;DHT22;52627;48.838;2.402;2024-02-21T06:01:25;8.05;80.00
65854;DHT22;52627;48.838;2.402;2024-02-21T06:03:53;8.06;80.02
65854;DHT22;52627;48.838;2.402;2024-02-21T06:06:21;8.06;80.03
65854;DHT22;52627;48.838;2.402;2024-02-21T06:08:49;8.06;80.05
65854;DHT22;52627;48.838;2.402;2024-02-21T06:11:17;8.06;80.09
65854;DHT22;52627;48.838;2.402;2024-02-21T06:13:44;8.07;80.10
65854;DHT22;52627;48.838;2.402;2024-02-21T06:16:12;8.07;80.10
65854;DHT22;52627;48.838;2.402;2024-02-21T06:18:40;8.06;80.16
65854;DHT22;52627;48.838;2.402;2024-02-21T06:21:07;8.05;80.18
65854;DHT22;52627;48.838;2.402;2024-02-21T06:23:36;8.04;80.20
65854;DHT22;52627;48.838;2.402;2024-02-21T06:26:04;8.04;80.25
65854;DHT22;52627;48.838;2.402;2024-02-21T06:28:31;8.04;80.29
65854;DHT22;52627;48.838;2.402;2024-02-21T06:30:59;8.04;80.30
65854;DHT22;52627;48.838;2.402;2024-02-21T06:33:26;8.02;80.30
65854;DHT22;52627;48.838;2.402;2024-02-21T06:35:54;8.02;80.31
65854;DHT22;52627;48.838;2.402;2024-02-21T06:38:22;8.02;80.38
65854;DHT22;52627;48.838;2.402;2024-02-21T06:40:50;8.02;80.40
65854;DHT22;52627;48.838;2.402;2024-02-21T06:43:19;8.02;80.40
65854;DHT22;52627;48.838;2.402;2024-02-21T06:45:48;8.02;80.40
65854;DHT22;52627;48.838;2.402;2024-02-21T06:48:18;8.03;80.41
65854;DHT22;52627;48.838;2.402;2024-02-21T06:50:47;8.02;80.42
65854;DHT22;52627;48.838;2.402;2024-02-21T06:53:14;8.04;80.46
65854;DHT22;52627;48.838;2.402;2024-02-21T06:55:41;8.04;80.46
65854;DHT22;52627;48.838;2.402;2024-02-21T06:58:09;8.03;80.49
65854;DHT22;52627;48.838;2.402;2024-02-21T07:00:39;8.05;80.50
65854;DHT22;52627;48.838;2.402;2024-02-21T07:03:07;8.05;80.50
65854;DHT22;52627;48.838;2.402;2024-02-21T07:05:35;8.07;80.50
65854;DHT22;52627;48.838;2.402;2024-02-21T07:08:03;8.08;80.50
65854;DHT22;52627;48.838;2.402;2024-02-21T07:10:31;8.08;80.50
65854;DHT22;52627;48.838;2.402;2024-02-21T07:12:59;8.09;80.51
65854;DHT22;52627;48.838;2.402;2024-02-21T07:15:27;8.09;80.53
65854;DHT22;52627;48.838;2.402;2024-02-21T07:17:56;8.10;80.58
65854;DHT22;52627;48.838;2.402;2024-02-21T07:20:24;8.11;80.57
65854;DHT22;52627;48.838;2.402;2024-02-21T07:22:52;8.11;80.58
65854;DHT22;52627;48.838;2.402;2024-02-21T07:25:19;8.12;80.60
65854;DHT22;52627;48.838;2.402;2024-02-21T07:27:47;8.13;80.60
65854;DHT22;52627;48.838;2.402;2024-02-21T07:30:14;8.15;80.61
65854;DHT22;52627;48.838;2.402;2024-02-21T07:32:43;8.16;80.63
65854;DHT22;52627;48.838;2.402;2024-02-21T07:35:11;8.19;80.66
65854;DHT22;52627;48.838;2.402;2024-02-21T07:37:40;8.21;80.64
65854;DHT22;52627;48.838;2.402;2024-02-21T07:40:12;8.24;80.65
65854;DHT22;52627;48.838;2.402;2024-02-21T07:42:41;8.27;80.66
65854;DHT22;52627;48.838;2.402;2024-02-21T07:45:14;8.29;80.64
65854;DHT22;52627;48.838;2.402;2024-02-21T07:47:42;8.33;80.68
65854;DHT22;52627;48.838;2.402;2024-02-21T07:50:10;8.35;80.67
65854;DHT22;52627;48.838;2.402;2024-02-21T07:52:37;8.39;80.69
65854;DHT22;52627;48.838;2.402;2024-02-21T07:55:05;8.41;80.68
65854;DHT22;52627;48.838;2.402;2024-02-21T07:57:33;8.44;80.66
65854;DHT22;52627;48.838;2.402;2024-02-21T08:00:00;8.47;80.64
65854;DHT22;52627;48.838;2.402;2024-02-21T08:02:28;8.50;80.62
65854;DHT22;52627;48.838;2.402;2024-02-21T08:04:55;8.53;80.61
65854;DHT22;52627;48.838;2.402;2024-02-21T08:07:23;8.56;80.62
65854;DHT22;52627;48.838;2.402;2024-02-21T08:09:50;8.59;80.60
65854;DHT22;52627;48.838;2.402;2024-02-21T08:12:18;8.63;80.61
65854;DHT22;52627;48.838;2.402;2024-02-21T08:14:45;8.68;80.60
65854;DHT22;52627;48.838;2.402;2024-02-21T08:17:13;8.71;80.56
65854;DHT22;52627;48.838;2.402;2024-02-21T08:19:40;8.74;80.52
65854;DHT22;52627;48.838;2.402;2024-02-21T08:22:08;8.78;80.50
65854;DHT22;52627;48.838;2.402;2024-02-21T08:24:35;8.80;80.49
65854;DHT22;52627;48.838;2.402;2024-02-21T08:27:03;8.83;80.43
65854;DHT22;52627;48.838;2.402;2024-02-21T08:29:31;8.85;80.40
65854;DHT22;52627;48.838;2.402;2024-02-21T08:31:59;8.87;80.40
65854;DHT22;52627;48.838;2.402;2024-02-21T08:34:27;8.90;80.34
65854;DHT22;52627;48.838;2.402;2024-02-21T08:36:57;8.91;80.31
65854;DHT22;52627;48.838;2.402;2024-02-21T08:39:24;8.93;80.30
65854;DHT22;52627;48.838;2.402;2024-02-21T08:41:51;8.96;80.29
65854;DHT22;52627;48.838;2.402;2024-02-21T08:44:23;8.98;80.22
65854;DHT22;52627;48.838;2.402;2024-02-21T08:46:53;8.99;80.20
65854;DHT22;52627;48.838;2.402;2024-02-21T08:49:22;9.01;80.15
65854;DHT22;52627;48.838;2.402;2024-02-21T08:51:50;9.03;80.11
65854;DHT22;52627;48.838;2.402;2024-02-21T08:54:18;9.05;80.09
65854;DHT22;52627;48.838;2.402;2024-02-21T08:56:45;9.08;80.10
65854;DHT22;52627;48.838;2.402;2024-02-21T08:59:13;9.10;80.06
65854;DHT22;52627;48.838;2.402;2024-02-21T09:01:42;9.12;80.00
65854;DHT22;52627;48.838;2.402;2024-02-21T09:04:11;9.14;79.99
65854;DHT22;52627;48.838;2.402;2024-02-21T09:06:39;9.17;79.91
65854;DHT22;52627;48.838;2.402;2024-02-21T09:09:09;9.20;79.91
65854;DHT22;52627;48.838;2.402;2024-02-21T09:11:37;9.23;79.89
65854;DHT22;52627;48.838;2.402;2024-02-21T09:14:06;9.27;79.81
65854;DHT22;52627;48.838;2.402;2024-02-21T09:16:34;9.31;79.80
65854;DHT22;52627;48.838;2.402;2024-02-21T09:19:02;9.36;79.80
65854;DHT22;52627;48.838;2.402;2024-02-21T09:21:29;9.41;79.74
65854;DHT22;52627;48.838;2.402;2024-02-21T09:23:57;9.46;79.70
65854;DHT22;52627;48.838;2.402;2024-02-21T09:26:26;9.51;79.62
65854;DHT22;52627;48.838;2.402;2024-02-21T09:28:54;9.56;79.54
65854;DHT22;52627;48.838;2.402;2024-02-21T09:31:21;9.61;79.50
65854;DHT22;52627;48.838;2.402;2024-02-21T09:33:49;9.66;79.49
65854;DHT22;52627;48.838;2.402;2024-02-21T09:36:17;9.71;79.39
65854;DHT22;52627;48.838;2.402;2024-02-21T09:38:45;9.76;79.35
65854;DHT22;52627;48.838;2.402;2024-02-21T09:41:15;9.81;79.30
65854;DHT22;52627;48.838;2.402;2024-02-21T09:43:51;9.85;79.23
65854;DHT22;52627;48.838;2.402;2024-02-21T09:52:01;10.00;78.96
65854;DHT22;52627;48.838;2.402;2024-02-21T09:54:30;10.06;78.90
65854;DHT22;52627;48.838;2.402;2024-02-21T09:57:00;10.10;78.86
65854;DHT22;52627;48.838;2.402;2024-02-21T09:59:30;10.12;78.70
65854;DHT22;52627;48.838;2.402;2024-02-21T10:02:00;10.15;78.61
65854;DHT22;52627;48.838;2.402;2024-02-21T10:04:29;10.19;78.52
65854;DHT22;52627;48.838;2.402;2024-02-21T10:06:58;10.21;78.39
65854;DHT22;52627;48.838;2.402;2024-02-21T10:09:26;10.25;78.30
65854;DHT22;52627;48.838;2.402;2024-02-21T10:11:56;10.31;78.21
65854;DHT22;52627;48.838;2.402;2024-02-21T10:14:37;10.37;78.13
65854;DHT22;52627;48.838;2.402;2024-02-21T10:17:05;10.44;78.04
65854;DHT22;52627;48.838;2.402;2024-02-21T10:19:38;10.51;77.96
65854;DHT22;52627;48.838;2.402;2024-02-21T10:22:08;10.60;77.84
65854;DHT22;52627;48.838;2.402;2024-02-21T10:24:37;10.66;77.70
65854;DHT22;52627;48.838;2.402;2024-02-21T10:27:06;10.74;77.58
65854;DHT22;52627;48.838;2.402;2024-02-21T10:29:36;10.86;77.56
65854;DHT22;52627;48.838;2.402;2024-02-21T10:32:08;10.97;77.44
65854;DHT22;52627;48.838;2.402;2024-02-21T10:34:39;11.09;77.28
65854;DHT22;52627;48.838;2.402;2024-02-21T10:37:11;11.20;77.13
65854;DHT22;52627;48.838;2.402;2024-02-21T10:39:40;11.29;76.98
65854;DHT22;52627;48.838;2.402;2024-02-21T10:42:12;11.36;76.80
65854;DHT22;52627;48.838;2.402;2024-02-21T10:44:41;11.42;76.64
65854;DHT22;52627;48.838;2.402;2024-02-21T10:47:10;11.47;76.51
65854;DHT22;52627;48.838;2.402;2024-02-21T10:49:41;11.57;76.49
65854;DHT22;52627;48.838;2.402;2024-02-21T10:52:17;11.66;76.28
65854;DHT22;52627;48.838;2.402;2024-02-21T10:55:04;11.72;76.10
65854;DHT22;52627;48.838;2.402;2024-02-21T10:57:38;11.75;75.87
65854;DHT22;52627;48.838;2.402;2024-02-21T11:00:05;11.76;75.78
65854;DHT22;52627;48.838;2.402;2024-02-21T11:02:35;11.77;75.64
65854;DHT22;52627;48.838;2.402;2024-02-21T11:05:04;11.79;75.58
65854;DHT22;52627;48.838;2.402;2024-02-21T11:07:32;11.81;75.43
65854;DHT22;52627;48.838;2.402;2024-02-21T11:10:04;11.80;75.28
65854;DHT22;52627;48.838;2.402;2024-02-21T11:12:34;11.78;75.15
65854;DHT22;52627;48.838;2.402;2024-02-21T11:15:05;11.79;75.10
65854;DHT22;52627;48.838;2.402;2024-02-21T11:17:33;11.80;75.05
65854;DHT22;52627;48.838;2.402;2024-02-21T11:20:13;11.81;74.95
65854;DHT22;52627;48.838;2.402;2024-02-21T11:22:41;11.83;74.88
65854;DHT22;52627;48.838;2.402;2024-02-21T11:25:10;11.84;74.76
65854;DHT22;52627;48.838;2.402;2024-02-21T11:27:47;11.85;74.66
65854;DHT22;52627;48.838;2.402;2024-02-21T11:30:14;11.86;74.58
65854;DHT22;52627;48.838;2.402;2024-02-21T11:32:43;11.87;74.46
65854;DHT22;52627;48.838;2.402;2024-02-21T11:35:18;11.89;74.40
65854;DHT22;52627;48.838;2.402;2024-02-21T11:37:47;11.92;74.34
65854;DHT22;52627;48.838;2.402;2024-02-21T11:40:15;11.97;74.23
65854;DHT22;52627;48.838;2.402;2024-02-21T11:42:42;12.00;74.20
65854;DHT22;52627;48.838;2.402;2024-02-21T11:45:10;12.03;74.09
65854;DHT22;52627;48.838;2.402;2024-02-21T11:47:37;12.07;74.01
65854;DHT22;52627;48.838;2.402;2024-02-21T11:50:09;12.10;73.90
65854;DHT22;52627;48.838;2.402;2024-02-21T11:52:39;12.14;73.80
65854;DHT22;52627;48.838;2.402;2024-02-21T11:55:07;12.17;73.70
65854;DHT22;52627;48.838;2.402;2024-02-21T11:57:39;12.19;73.62
65854;DHT22;52627;48.838;2.402;2024-02-21T12:00:12;12.22;73.50
65854;DHT22;52627;48.838;2.402;2024-02-21T12:02:45;12.27;73.42
65854;DHT22;52627;48.838;2.402;2024-02-21T12:05:13;12.29;73.36
65854;DHT22;52627;48.838;2.402;2024-02-21T12:07:42;12.33;73.30
65854;DHT22;52627;48.838;2.402;2024-02-21T12:10:10;12.38;73.25
65854;DHT22;52627;48.838;2.402;2024-02-21T12:12:38;12.41;73.11
65854;DHT22;52627;48.838;2.402;2024-02-21T12:15:07;12.44;72.99
65854;DHT22;52627;48.838;2.402;2024-02-21T12:17:35;12.45;72.89
65854;DHT22;52627;48.838;2.402;2024-02-21T12:20:04;12.46;72.80
65854;DHT22;52627;48.838;2.402;2024-02-21T12:22:43;12.47;72.69
65854;DHT22;52627;48.838;2.402;2024-02-21T12:25:20;12.47;72.63
65854;DHT22;52627;48.838;2.402;2024-02-21T12:27:54;12.47;72.54
65854;DHT22;52627;48.838;2.402;2024-02-21T12:30:22;12.48;72.50
65854;DHT22;52627;48.838;2.402;2024-02-21T12:32:50;12.50;72.41
65854;DHT22;52627;48.838;2.402;2024-02-21T12:35:18;12.50;72.25
65854;DHT22;52627;48.838;2.402;2024-02-21T12:37:46;12.48;72.17
65854;DHT22;52627;48.838;2.402;2024-02-21T12:40:14;12.47;72.09
65854;DHT22;52627;48.838;2.402;2024-02-21T12:42:42;12.49;72.07
65854;DHT22;52627;48.838;2.402;2024-02-21T12:45:10;12.48;71.93
65854;DHT22;52627;48.838;2.402;2024-02-21T12:47:38;12.45;71.80
65854;DHT22;52627;48.838;2.402;2024-02-21T12:50:07;12.44;71.71
65854;DHT22;52627;48.838;2.402;2024-02-21T12:52:35;12.41;71.68
65854;DHT22;52627;48.838;2.402;2024-02-21T12:55:04;12.42;71.66
65854;DHT22;52627;48.838;2.402;2024-02-21T12:57:32;12.44;71.57
65854;DHT22;52627;48.838;2.402;2024-02-21T12:59:59;12.42;71.50
65854;DHT22;52627;48.838;2.402;2024-02-21T13:02:27;12.43;71.46
65854;DHT22;52627;48.838;2.402;2024-02-21T13:04:55;12.42;71.41
65854;DHT22;52627;48.838;2.402;2024-02-21T13:07:22;12.43;71.40
65854;DHT22;52627;48.838;2.402;2024-02-21T13:09:50;12.44;71.40
65854;DHT22;52627;48.838;2.402;2024-02-21T13:12:17;12.47;71.40
65854;DHT22;52627;48.838;2.402;2024-02-21T13:14:45;12.49;71.30
65854;DHT22;52627;48.838;2.402;2024-02-21T13:17:13;12.48;71.29
65854;DHT22;52627;48.838;2.402;2024-02-21T13:19:42;12.47;71.24
65854;DHT22;52627;48.838;2.402;2024-02-21T13:22:09;12.44;71.30
65854;DHT22;52627;48.838;2.402;2024-02-21T13:24:38;12.39;71.37
65854;DHT22;52627;48.838;2.402;2024-02-21T13:27:05;12.34;71.45
65854;DHT22;52627;48.838;2.402;2024-02-21T13:29:33;12.28;71.56
65854;DHT22;52627;48.838;2.402;2024-02-21T13:32:01;12.22;71.71
65854;DHT22;52627;48.838;2.402;2024-02-21T13:34:29;12.16;71.88
65854;DHT22;52627;48.838;2.402;2024-02-21T13:36:57;12.10;72.02
65854;DHT22;52627;48.838;2.402;2024-02-21T13:39:26;12.03;72.16
65854;DHT22;52627;48.838;2.402;2024-02-21T13:41:53;11.97;72.28
65854;DHT22;52627;48.838;2.402;2024-02-21T13:44:21;11.92;72.41
65854;DHT22;52627;48.838;2.402;2024-02-21T13:46:48;11.87;72.56
65854;DHT22;52627;48.838;2.402;2024-02-21T13:49:16;11.83;72.65
65854;DHT22;52627;48.838;2.402;2024-02-21T13:51:44;11.77;72.78
65854;DHT22;52627;48.838;2.402;2024-02-21T13:54:13;11.70;72.95
65854;DHT22;52627;48.838;2.402;2024-02-21T13:56:44;11.63;73.14
65854;DHT22;52627;48.838;2.402;2024-02-21T13:59:12;11.56;73.34
65854;DHT22;52627;48.838;2.402;2024-02-21T14:01:43;11.47;73.49
65854;DHT22;52627;48.838;2.402;2024-02-21T14:04:11;11.40;73.67
65854;DHT22;52627;48.838;2.402;2024-02-21T14:06:39;11.34;73.85
65854;DHT22;52627;48.838;2.402;2024-02-21T14:09:11;11.27;74.07
65854;DHT22;52627;48.838;2.402;2024-02-21T14:11:40;11.24;74.22
65854;DHT22;52627;48.838;2.402;2024-02-21T14:14:09;11.19;74.43
65854;DHT22;52627;48.838;2.402;2024-02-21T14:16:37;11.14;74.60
65854;DHT22;52627;48.838;2.402;2024-02-21T14:19:05;11.09;74.75
65854;DHT22;52627;48.838;2.402;2024-02-21T14:21:34;11.03;74.93
65854;DHT22;52627;48.838;2.402;2024-02-21T14:24:05;10.98;75.11
65854;DHT22;52627;48.838;2.402;2024-02-21T14:26:33;10.92;75.33
65854;DHT22;52627;48.838;2.402;2024-02-21T14:29:03;10.86;75.55
65854;DHT22;52627;48.838;2.402;2024-02-21T14:31:31;10.80;75.76
65854;DHT22;52627;48.838;2.402;2024-02-21T14:34:03;10.74;76.02
65854;DHT22;52627;48.838;2.402;2024-02-21T14:36:37;10.68;76.30
65854;DHT22;52627;48.838;2.402;2024-02-21T14:39:05;10.63;76.48
65854;DHT22;52627;48.838;2.402;2024-02-21T14:41:36;10.59;76.69
65854;DHT22;52627;48.838;2.402;2024-02-21T14:44:14;10.53;76.93
65854;DHT22;52627;48.838;2.402;2024-02-21T14:46:42;10.48;77.14
65854;DHT22;52627;48.838;2.402;2024-02-21T14:49:10;10.45;77.33
65854;DHT22;52627;48.838;2.402;2024-02-21T14:51:38;10.42;77.51
65854;DHT22;52627;48.838;2.402;2024-02-21T14:54:06;10.39;77.69
65854;DHT22;52627;48.838;2.402;2024-02-21T14:56:34;10.38;77.87
65854;DHT22;52627;48.838;2.402;2024-02-21T14:59:02;10.36;78.02
65854;DHT22;52627;48.838;2.402;2024-02-21T15:01:41;10.33;78.19
65854;DHT22;52627;48.838;2.402;2024-02-21T15:04:09;10.31;78.39
65854;DHT22;52627;48.838;2.402;2024-02-21T15:06:37;10.30;78.59
65854;DHT22;52627;48.838;2.402;2024-02-21T15:09:06;10.27;78.73
65854;DHT22;52627;48.838;2.402;2024-02-21T15:11:35;10.27;78.85
65854;DHT22;52627;48.838;2.402;2024-02-21T15:14:03;10.26;79.00
65854;DHT22;52627;48.838;2.402;2024-02-21T15:16:31;10.25;79.14
65854;DHT22;52627;48.838;2.402;2024-02-21T15:18:58;10.24;79.30
65854;DHT22;52627;48.838;2.402;2024-02-21T15:21:26;10.22;79.43
65854;DHT22;52627;48.838;2.402;2024-02-21T15:23:54;10.22;79.60
65854;DHT22;52627;48.838;2.402;2024-02-21T15:26:22;10.20;79.71
65854;DHT22;52627;48.838;2.402;2024-02-21T15:28:50;10.20;79.89
65854;DHT22;52627;48.838;2.402;2024-02-21T15:31:24;10.18;80.07
65854;DHT22;52627;48.838;2.402;2024-02-21T15:33:52;10.17;80.18
65854;DHT22;52627;48.838;2.402;2024-02-21T15:36:21;10.16;80.35
65854;DHT22;52627;48.838;2.402;2024-02-21T15:38:48;10.15;80.47
65854;DHT22;52627;48.838;2.402;2024-02-21T15:41:16;10.16;80.57
65854;DHT22;52627;48.838;2.402;2024-02-21T15:43:44;10.15;80.72
65854;DHT22;52627;48.838;2.402;2024-02-21T15:46:12;10.14;80.80
65854;DHT22;52627;48.838;2.402;2024-02-21T15:48:40;10.14;80.93
65854;DHT22;52627;48.838;2.402;2024-02-21T15:51:08;10.13;81.06
65854;DHT22;52627;48.838;2.402;2024-02-21T15:53:36;10.13;81.16